createdAt,value
2018-06-10T00:00:29.963Z,21.40
2018-06-10T00:10:34.633Z,21.40
2018-06-10T00:20:39.479Z,21.40
2018-06-10T00:30:44.185Z,21.40
2018-06-10T00:40:49.596Z,21.40
2018-06-10T00:50:54.411Z,21.40
2018-06-10T01:00:59.265Z,21.40
2018-06-10T01:11:05.130Z,21.40
2018-06-10T01:21:09.739Z,21.30
2018-06-10T01:31:14.461Z,21.40
2018-06-10T01:41:19.155Z,21.40
2018-06-10T01:51:23.805Z,21.30
2018-06-10T02:01:28.564Z,21.30
2018-06-10T02:11:33.391Z,21.30
2018-06-10T02:21:38.175Z,21.30
2018-06-10T02:31:43.084Z,21.30
2018-06-10T02:41:47.834Z,21.30
2018-06-10T02:51:52.541Z,21.30
2018-06-10T03:01:57.289Z,21.30
2018-06-10T03:12:02.523Z,21.30
2018-06-10T03:32:11.739Z,21.30
2018-06-10T03:42:16.632Z,21.20
2018-06-10T03:52:21.663Z,21.20
2018-06-10T04:02:26.455Z,21.20
2018-06-10T04:12:31.243Z,21.20
2018-06-10T04:22:36.179Z,21.20
2018-06-10T04:32:40.942Z,21.20
2018-06-10T04:42:45.637Z,21.20
2018-06-10T04:52:51.326Z,21.20
2018-06-10T05:02:56.296Z,21.20
2018-06-10T05:13:02.951Z,21.20
2018-06-10T05:23:07.719Z,21.20
2018-06-10T05:33:12.519Z,21.20
2018-06-10T05:43:17.278Z,21.10
2018-06-10T05:53:22.019Z,21.10
2018-06-10T06:03:26.768Z,21.10
2018-06-10T06:13:31.513Z,21.10
2018-06-10T06:23:36.363Z,21.10
2018-06-10T06:33:41.318Z,21.10
2018-06-10T06:43:46.263Z,21.10
2018-06-10T06:53:50.951Z,21.10
2018-06-10T07:03:55.822Z,21.10
2018-06-10T07:14:00.769Z,21.10
2018-06-10T07:24:05.657Z,21.10
2018-06-10T07:34:10.326Z,21.10
2018-06-10T07:44:15.028Z,21.10
2018-06-10T07:54:19.821Z,21.10
2018-06-10T08:04:24.710Z,21.10
2018-06-10T08:24:34.059Z,21.10
2018-06-10T08:34:39.044Z,21.10
2018-06-10T08:44:43.830Z,21.10
2018-06-10T08:54:48.920Z,21.10
2018-06-10T09:04:53.755Z,21.10
2018-06-10T09:14:58.774Z,21.10
2018-06-10T09:25:03.442Z,21.10
2018-06-10T09:35:08.251Z,21.10
2018-06-10T09:45:13.075Z,21.10
2018-06-10T09:55:17.996Z,21.10
2018-06-10T10:05:22.771Z,21.10
2018-06-10T10:15:27.639Z,21.10
2018-06-10T10:25:32.943Z,21.20
2018-06-10T10:35:37.670Z,21.10
2018-06-10T10:45:42.516Z,21.20
2018-06-10T10:55:47.409Z,21.20
2018-06-10T11:05:52.108Z,21.20
2018-06-10T11:15:56.849Z,21.20
2018-06-10T11:26:01.500Z,21.20
2018-06-10T11:36:07.643Z,21.20
2018-06-10T11:46:12.428Z,21.20
2018-06-10T11:56:17.884Z,21.30
2018-06-10T12:06:22.620Z,21.30
2018-06-10T12:16:27.748Z,21.30
2018-06-10T12:26:32.464Z,21.20
2018-06-10T12:36:37.151Z,21.30
2018-06-10T12:46:42.432Z,21.30
2018-06-10T13:06:52.353Z,21.30
2018-06-10T13:16:57.171Z,21.30
2018-06-10T13:27:02.757Z,21.30
2018-06-10T13:37:07.668Z,21.30
2018-06-10T13:57:17.845Z,21.30
2018-06-10T14:07:22.712Z,21.30
2018-06-10T14:17:27.619Z,21.40
2018-06-10T14:27:32.623Z,21.40
2018-06-10T14:37:37.264Z,21.40
2018-06-10T14:47:42.126Z,21.40
2018-06-10T14:57:46.933Z,21.50
2018-06-10T15:07:51.689Z,21.50
2018-06-10T15:17:56.378Z,21.50
2018-06-10T15:28:01.256Z,21.50
2018-06-10T15:38:06.249Z,21.50
2018-06-10T15:58:15.713Z,21.60
2018-06-10T17:15:31.609Z,21.70
2018-06-10T17:25:36.451Z,21.70
2018-06-10T17:35:41.323Z,21.80
2018-06-10T17:45:45.929Z,21.80
2018-06-10T17:55:50.725Z,21.80
2018-06-10T18:05:56.074Z,21.80
2018-06-10T18:16:01.887Z,21.80
2018-06-10T18:26:07.677Z,21.80
2018-06-10T18:36:12.447Z,21.80
2018-06-10T18:46:17.647Z,21.80
2018-06-10T18:56:22.592Z,21.80
2018-06-10T19:06:27.408Z,21.80
2018-06-10T19:16:32.236Z,21.80
2018-06-10T19:26:36.911Z,21.80
2018-06-10T19:46:46.268Z,21.80
2018-06-10T19:56:51.056Z,21.80
2018-06-10T20:06:55.820Z,21.80
2018-06-10T20:17:00.768Z,21.80
2018-06-10T20:27:05.418Z,21.80
2018-06-10T20:37:11.069Z,21.80
2018-06-10T20:47:15.850Z,21.80
2018-06-10T20:57:20.538Z,21.80
2018-06-10T21:07:25.204Z,21.80
2018-06-10T21:17:29.784Z,21.80
2018-06-10T21:27:34.565Z,21.80
2018-06-10T21:37:39.239Z,21.80
2018-06-10T21:47:43.911Z,21.80
2018-06-10T21:57:48.696Z,21.80
2018-06-10T22:07:53.450Z,21.80
2018-06-10T22:17:58.224Z,21.80
2018-06-10T22:28:02.954Z,21.80
2018-06-10T22:38:07.676Z,21.80
2018-06-10T22:48:12.505Z,21.80
2018-06-10T22:58:17.376Z,21.80
2018-06-10T23:08:22.157Z,21.80
2018-06-10T23:28:31.319Z,21.80
2018-06-10T23:38:36.076Z,21.80
2018-06-10T23:48:40.851Z,21.70
2018-06-10T23:58:46.152Z,21.70
